Time;durP1;ratioP1;P1;durP2;ratioP2;P2;SDS_P1;SDS_P2;PMS_P1;PMS_P2;Temp;Humidity;BMP_temperature;BMP_pressure;BME280_temperature;BME280_humidity;BME280_pressure;Samples;Min_cycle;Max_cycle;Signal;HPM_P1;HPM_P2
2020/12/24 00:00:47;;;;;;;4.55;3.47;;;9.60;99.90;;;;;;5034029;28;20033;-78
2020/12/24 00:03:13;;;;;;;4.35;3.08;;;9.50;99.90;;;;;;5033693;28;20033;-76
2020/12/24 00:05:38;;;;;;;4.60;3.17;;;9.50;99.90;;;;;;5042689;28;20436;-78
2020/12/24 00:08:04;;;;;;;3.83;3.03;;;9.50;99.90;;;;;;5055153;28;20029;-78
2020/12/24 00:10:31;;;;;;;5.82;3.00;;;9.50;99.90;;;;;;5054741;28;20060;-78
2020/12/24 00:12:56;;;;;;;5.35;3.20;;;9.50;99.90;;;;;;5038791;28;20029;-78
2020/12/24 00:15:22;;;;;;;6.43;4.60;;;9.50;99.90;;;;;;5034433;28;20029;-76
2020/12/24 00:17:51;;;;;;;4.65;3.83;;;9.50;99.90;;;;;;5032620;28;20053;-76
2020/12/24 00:20:16;;;;;;;4.78;3.58;;;9.50;99.90;;;;;;5031686;28;20052;-76
2020/12/24 00:22:42;;;;;;;4.72;3.25;;;9.50;99.90;;;;;;5031360;28;20120;-76
2020/12/24 00:25:08;;;;;;;3.97;3.10;;;9.50;99.90;;;;;;5032653;28;20037;-77
2020/12/24 00:27:33;;;;;;;5.43;3.80;;;9.50;99.90;;;;;;5031061;28;20087;-77
2020/12/24 00:29:59;;;;;;;6.10;3.95;;;9.40;99.90;;;;;;5031176;28;20040;-76
2020/12/24 00:32:25;;;;;;;5.38;3.80;;;9.40;99.90;;;;;;5031982;28;20022;-77
2020/12/24 00:34:50;;;;;;;5.57;3.65;;;9.40;99.90;;;;;;5035168;28;20436;-76
2020/12/24 00:37:16;;;;;;;7.70;5.68;;;9.40;99.90;;;;;;5036152;28;20152;-76
2020/12/24 00:39:41;;;;;;;9.02;4.95;;;9.30;99.90;;;;;;5035945;28;20083;-77
2020/12/24 00:42:07;;;;;;;6.78;4.53;;;9.30;99.90;;;;;;5035083;28;20028;-77
2020/12/24 00:44:32;;;;;;;5.95;4.07;;;9.30;99.90;;;;;;5034730;28;20116;-77
2020/12/24 00:46:58;;;;;;;5.63;4.20;;;9.30;99.90;;;;;;5036043;28;20025;-76
2020/12/24 00:49:23;;;;;;;6.05;4.25;;;9.30;99.90;;;;;;5035874;28;20086;-76
2020/12/24 00:51:49;;;;;;;6.53;4.63;;;9.30;99.90;;;;;;5034594;28;20109;-77
2020/12/24 00:54:14;;;;;;;5.43;3.85;;;9.30;99.90;;;;;;5036022;28;20431;-76
2020/12/24 00:56:40;;;;;;;8.02;4.90;;;9.30;99.90;;;;;;5054366;28;20017;-76
2020/12/24 00:59:05;;;;;;;6.20;4.47;;;9.30;99.90;;;;;;5070949;28;20047;-76
2020/12/24 01:01:31;;;;;;;6.20;5.25;;;9.30;99.90;;;;;;5055487;28;20131;-76
2020/12/24 01:03:56;;;;;;;7.13;5.25;;;9.20;99.90;;;;;;5071200;28;20032;-76
2020/12/24 01:06:22;;;;;;;7.68;5.47;;;9.30;99.90;;;;;;5054366;28;20433;-76
2020/12/24 01:08:47;;;;;;;6.85;4.55;;;9.20;99.90;;;;;;5054388;28;20104;-77
2020/12/24 01:11:13;;;;;;;6.60;4.97;;;9.20;99.90;;;;;;5054297;28;20031;-76
2020/12/24 01:13:39;;;;;;;6.43;4.78;;;9.20;99.90;;;;;;5070725;28;20104;-76
2020/12/24 01:16:04;;;;;;;8.85;5.38;;;9.10;99.90;;;;;;5053931;28;20025;-76
2020/12/24 01:18:30;;;;;;;7.35;5.47;;;9.20;99.90;;;;;;5053938;28;20025;-76
2020/12/24 01:20:55;;;;;;;7.53;5.50;;;9.10;99.90;;;;;;5070637;28;20017;-76
2020/12/24 01:23:21;;;;;;;6.20;5.32;;;9.10;99.90;;;;;;5053789;28;20025;-76
2020/12/24 01:25:46;;;;;;;7.10;4.95;;;9.20;99.90;;;;;;5035335;28;20040;-77
2020/12/24 01:28:12;;;;;;;5.65;4.32;;;9.10;99.90;;;;;;5034901;28;20033;-76
2020/12/24 01:30:37;;;;;;;6.07;4.55;;;9.10;99.90;;;;;;5035666;28;20026;-77
2020/12/24 01:33:03;;;;;;;6.50;4.22;;;9.20;99.90;;;;;;5035734;28;20025;-77
2020/12/24 01:35:29;;;;;;;5.78;4.75;;;9.20;99.90;;;;;;5050829;28;20029;-77
2020/12/24 01:37:54;;;;;;;5.97;4.10;;;9.20;99.90;;;;;;5035281;28;20037;-77
2020/12/24 01:40:20;;;;;;;7.45;5.03;;;9.20;99.90;;;;;;5034422;28;20029;-77
2020/12/24 01:42:48;;;;;;;6.57;4.85;;;9.20;99.90;;;;;;5036833;28;20029;-77
2020/12/24 01:45:13;;;;;;;13.70;5.28;;;9.20;99.90;;;;;;5035715;28;20026;-77
2020/12/24 01:47:39;;;;;;;7.53;5.03;;;9.20;99.90;;;;;;5035820;28;20036;-77
2020/12/24 01:50:05;;;;;;;5.90;4.38;;;9.10;99.90;;;;;;5034886;28;20448;-77
2020/12/24 01:52:36;;;;;;;6.53;4.50;;;9.20;99.90;;;;;;5035056;28;20108;-77
2020/12/24 01:55:10;;;;;;;5.80;4.90;;;9.10;99.90;;;;;;5050602;28;20033;-78
2020/12/24 01:57:37;;;;;;;6.45;4.57;;;9.10;99.90;;;;;;5054116;28;20104;-77
2020/12/24 02:00:06;;;;;;;5.65;4.50;;;9.10;99.90;;;;;;5054062;28;20029;-77
2020/12/24 02:02:31;;;;;;;6.25;4.05;;;9.10;99.90;;;;;;5052908;28;20021;-77
2020/12/24 02:04:57;;;;;;;5.30;4.10;;;9.10;99.90;;;;;;5055720;28;20479;-77
2020/12/24 02:07:23;;;;;;;4.93;3.97;;;9.20;99.90;;;;;;5055061;28;20154;-77
2020/12/24 02:09:50;;;;;;;4.90;3.30;;;9.10;99.90;;;;;;5054970;28;20028;-76
2020/12/24 02:12:16;;;;;;;4.88;3.60;;;9.10;99.90;;;;;;5054256;28;20396;-77
2020/12/24 02:14:42;;;;;;;4.25;2.72;;;9.10;99.90;;;;;;5055308;28;20503;-77
2020/12/24 02:17:09;;;;;;;5.25;3.15;;;9.10;99.90;;;;;;5058170;28;20108;-77
2020/12/24 02:19:34;;;;;;;5.38;3.58;;;9.10;99.90;;;;;;5060568;28;20049;-77
2020/12/24 02:22:00;;;;;;;3.80;3.25;;;9.10;99.90;;;;;;5062625;28;20028;-77
2020/12/24 02:24:27;;;;;;;3.95;2.97;;;9.10;99.90;;;;;;5074701;28;20059;-77
2020/12/24 02:26:52;;;;;;;4.15;3.15;;;9.20;99.90;;;;;;5055275;28;20028;-77
2020/12/24 02:29:18;;;;;;;5.00;2.90;;;9.10;99.90;;;;;;5052117;28;20036;-77
2020/12/24 02:31:44;;;;;;;4.15;2.90;;;9.10;99.90;;;;;;5033279;28;20017;-77
2020/12/24 02:34:09;;;;;;;4.57;3.40;;;9.10;99.90;;;;;;5034528;28;20021;-76
2020/12/24 02:36:35;;;;;;;5.05;3.33;;;9.10;99.90;;;;;;5034547;28;20030;-76
2020/12/24 02:39:00;;;;;;;5.50;3.28;;;9.10;99.90;;;;;;5033213;28;20037;-76
2020/12/24 02:41:26;;;;;;;3.95;3.22;;;9.00;99.90;;;;;;5034215;28;20022;-77
2020/12/24 02:43:51;;;;;;;4.90;3.22;;;9.10;99.90;;;;;;5033011;28;20547;-76
2020/12/24 02:46:17;;;;;;;3.55;2.70;;;9.10;99.90;;;;;;5033340;28;20030;-76
2020/12/24 02:48:43;;;;;;;4.68;2.67;;;9.00;99.90;;;;;;5034471;28;20029;-76
2020/12/24 02:51:09;;;;;;;3.95;2.75;;;9.00;99.90;;;;;;5034405;28;20384;-76
2020/12/24 02:53:36;;;;;;;2.72;2.50;;;9.00;99.90;;;;;;5049176;28;20034;-77
2020/12/24 02:56:01;;;;;;;3.78;2.88;;;9.00;99.90;;;;;;5034097;28;20504;-76
2020/12/24 02:58:27;;;;;;;3.25;2.70;;;9.00;99.90;;;;;;5043646;28;20033;-76
2020/12/24 03:00:52;;;;;;;4.32;2.92;;;9.00;99.90;;;;;;5054418;28;20463;-77
2020/12/24 03:03:20;;;;;;;2.92;2.38;;;9.00;99.90;;;;;;5052858;28;20025;-77
2020/12/24 03:05:45;;;;;;;4.68;2.72;;;9.00;99.90;;;;;;5053079;28;20025;-77
2020/12/24 03:08:11;;;;;;;2.70;2.30;;;9.00;99.90;;;;;;5054288;28;20025;-77
2020/12/24 03:10:36;;;;;;;3.10;2.78;;;9.00;99.90;;;;;;5052961;28;20025;-76
2020/12/24 03:13:02;;;;;;;3.20;2.40;;;9.00;99.90;;;;;;5054424;28;20029;-77
2020/12/24 03:15:27;;;;;;;3.00;2.47;;;9.00;99.90;;;;;;5053297;28;20020;-77
2020/12/24 03:17:53;;;;;;;3.58;3.05;;;9.00;99.90;;;;;;5053053;28;20190;-77
2020/12/24 03:20:18;;;;;;;3.35;2.92;;;9.00;99.90;;;;;;5052945;28;20021;-77
2020/12/24 03:22:44;;;;;;;3.88;3.05;;;9.00;99.90;;;;;;5044043;28;20507;-77
2020/12/24 03:25:11;;;;;;;4.80;2.80;;;8.90;99.90;;;;;;5033681;28;20488;-78
2020/12/24 03:27:37;;;;;;;4.43;3.30;;;8.90;99.90;;;;;;5054151;28;20047;-77
2020/12/24 03:30:04;;;;;;;3.80;2.90;;;8.90;99.90;;;;;;5047122;28;20029;-77
2020/12/24 03:32:30;;;;;;;4.57;2.95;;;8.90;99.90;;;;;;5033037;28;20025;-77
2020/12/24 03:34:56;;;;;;;3.72;3.13;;;8.90;99.90;;;;;;5034219;28;20449;-77
2020/12/24 03:37:21;;;;;;;4.32;3.10;;;8.80;99.90;;;;;;5034542;28;20117;-77
2020/12/24 03:39:47;;;;;;;4.70;3.28;;;8.80;99.90;;;;;;5084626;23;20041;-79
2020/12/24 03:42:13;;;;;;;3.65;3.08;;;8.80;99.90;;;;;;5078684;28;20021;-77
2020/12/24 03:44:38;;;;;;;4.32;2.85;;;8.80;99.90;;;;;;5053588;28;20029;-77
2020/12/24 03:47:04;;;;;;;3.92;2.97;;;8.70;99.90;;;;;;5053429;28;20495;-77
2020/12/24 03:49:30;;;;;;;4.82;3.55;;;8.70;99.90;;;;;;5053428;28;20090;-77
2020/12/24 03:51:55;;;;;;;4.95;3.70;;;8.60;99.90;;;;;;5068779;28;20029;-77
2020/12/24 03:54:21;;;;;;;5.25;4.28;;;8.60;99.90;;;;;;5068108;28;20021;-77
2020/12/24 03:56:46;;;;;;;8.40;4.53;;;8.60;99.90;;;;;;5052395;28;20032;-77
2020/12/24 03:59:12;;;;;;;6.60;4.65;;;8.60;99.90;;;;;;5055433;28;20029;-79
2020/12/24 04:01:37;;;;;;;9.63;6.15;;;8.50;99.90;;;;;;5056648;28;20029;-80
2020/12/24 04:04:03;;;;;;;9.32;5.93;;;8.50;99.90;;;;;;5055527;28;20550;-79
2020/12/24 04:06:28;;;;;;;9.23;6.88;;;8.50;99.90;;;;;;5072237;28;20506;-78
2020/12/24 04:08:54;;;;;;;8.68;5.70;;;8.60;99.90;;;;;;5057856;28;20055;-79
2020/12/24 04:11:20;;;;;;;8.13;6.10;;;8.60;99.90;;;;;;5058109;28;20055;-79
2020/12/24 04:13:46;;;;;;;9.15;6.38;;;8.60;99.90;;;;;;5057396;28;20048;-78
2020/12/24 04:16:11;;;;;;;8.43;6.68;;;8.60;99.90;;;;;;5055955;28;20110;-79
2020/12/24 04:18:38;;;;;;;7.28;5.75;;;8.60;99.90;;;;;;5057202;28;20499;-78
2020/12/24 04:21:03;;;;;;;7.32;5.70;;;8.50;99.90;;;;;;5058063;28;20021;-79
2020/12/24 04:23:29;;;;;;;10.68;6.85;;;8.60;99.90;;;;;;5056712;28;20125;-79
2020/12/24 04:25:55;;;;;;;7.88;6.00;;;8.50;99.90;;;;;;5057550;28;20033;-79
2020/12/24 04:28:21;;;;;;;7.13;5.88;;;8.50;99.90;;;;;;5057312;28;20025;-78
2020/12/24 04:30:47;;;;;;;9.35;7.00;;;8.50;99.90;;;;;;5073749;28;20443;-79
2020/12/24 04:33:13;;;;;;;10.68;7.35;;;8.50;99.90;;;;;;5057728;28;20029;-79
2020/12/24 04:35:39;;;;;;;9.30;6.90;;;8.50;99.90;;;;;;5058839;28;20029;-79
2020/12/24 04:38:05;;;;;;;10.70;7.65;;;8.50;99.90;;;;;;5059483;28;20029;-79
2020/12/24 04:40:32;;;;;;;10.10;7.90;;;8.50;99.90;;;;;;5076003;28;20033;-78
2020/12/24 04:42:59;;;;;;;9.98;8.10;;;8.50;99.90;;;;;;5060280;28;20373;-78
2020/12/24 04:45:26;;;;;;;9.93;7.72;;;8.50;99.90;;;;;;5060212;28;20112;-78
2020/12/24 04:47:57;;;;;;;12.88;8.52;;;8.50;99.90;;;;;;5056976;28;20126;-78
2020/12/24 04:50:27;;;;;;;12.90;8.65;;;8.50;99.90;;;;;;5039534;28;20101;-77
2020/12/24 04:52:57;;;;;;;11.25;8.48;;;8.50;99.90;;;;;;5038287;28;20025;-78
2020/12/24 04:55:23;;;;;;;12.57;9.27;;;8.50;99.90;;;;;;5039958;28;20037;-78
2020/12/24 04:57:49;;;;;;;16.10;10.10;;;8.50;99.90;;;;;;5055312;28;20108;-78
2020/12/24 05:00:18;;;;;;;10.82;8.45;;;8.50;99.90;;;;;;5054157;28;20053;-78
2020/12/24 05:02:45;;;;;;;11.23;8.15;;;8.50;99.90;;;;;;5040517;28;20036;-77
2020/12/24 05:05:10;;;;;;;13.60;8.40;;;8.50;99.90;;;;;;5039827;28;20034;-78
2020/12/24 05:07:41;;;;;;;12.75;7.70;;;8.50;99.90;;;;;;5055579;28;20094;-77
2020/12/24 05:10:12;;;;;;;9.15;7.00;;;8.60;99.90;;;;;;5040746;28;20014;-78
2020/12/24 05:12:37;;;;;;;8.13;5.35;;;8.50;99.90;;;;;;5040647;28;20112;-77
2020/12/24 05:15:03;;;;;;;9.45;5.80;;;8.60;99.90;;;;;;5038342;28;20107;-77
2020/12/24 05:17:28;;;;;;;9.23;6.38;;;8.60;99.90;;;;;;5039941;28;20021;-78
2020/12/24 05:20:06;;;;;;;9.52;6.60;;;8.60;99.90;;;;;;5039266;28;20091;-78
2020/12/24 05:22:31;;;;;;;7.95;6.22;;;8.60;99.90;;;;;;5039292;28;20017;-78
2020/12/24 05:25:10;;;;;;;7.07;5.75;;;8.50;99.90;;;;;;5040026;28;20104;-78
2020/12/24 05:27:39;;;;;;;8.38;5.50;;;8.60;99.90;;;;;;5039864;28;20384;-78
2020/12/24 05:30:05;;;;;;;7.13;4.72;;;8.60;99.90;;;;;;5039091;28;20017;-78
2020/12/24 05:32:32;;;;;;;5.03;2.80;;;8.60;99.90;;;;;;5038868;28;20103;-78
2020/12/24 05:35:09;;;;;;;4.90;2.40;;;8.50;99.90;;;;;;5036907;28;20440;-78
2020/12/24 05:37:34;;;;;;;2.67;1.70;;;8.40;99.90;;;;;;5053495;28;20044;-78
2020/12/24 05:40:16;;;;;;;2.67;1.40;;;8.30;99.90;;;;;;5039957;28;20507;-77
2020/12/24 05:43:01;;;;;;;4.70;1.20;;;8.30;99.90;;;;;;5039396;28;20075;-78
2020/12/24 05:45:29;;;;;;;2.03;1.00;;;8.20;99.90;;;;;;5054455;28;20021;-78
2020/12/24 05:48:23;;;;;;;1.88;1.10;;;8.20;99.90;;;;;;5038311;28;20060;-78
2020/12/24 05:50:49;;;;;;;0.73;0.73;;;8.10;99.90;;;;;;5017482;28;20033;-78
2020/12/24 05:53:19;;;;;;;1.08;0.95;;;8.10;99.90;;;;;;5053808;28;20033;-78
2020/12/24 05:55:45;;;;;;;1.60;1.00;;;8.00;99.90;;;;;;5039387;28;20049;-78
2020/12/24 05:58:10;;;;;;;2.13;1.35;;;8.00;99.90;;;;;;5043226;28;20022;-78
2020/12/24 06:00:40;;;;;;;2.10;1.20;;;7.90;99.90;;;;;;5050972;28;20018;-78
2020/12/24 06:03:19;;;;;;;1.70;1.30;;;7.90;99.90;;;;;;5040874;28;20033;-79
2020/12/24 06:05:57;;;;;;;7.90;4.00;;;7.90;99.90;;;;;;5040472;28;20022;-78
2020/12/24 06:08:28;;;;;;;4.93;1.90;;;7.90;99.90;;;;;;5041217;28;20032;-78
2020/12/24 06:11:06;;;;;;;3.63;1.67;;;7.90;99.90;;;;;;5039308;28;20022;-78
2020/12/24 06:13:43;;;;;;;3.13;1.50;;;7.90;99.90;;;;;;5054827;28;20029;-78
2020/12/24 06:16:10;;;;;;;1.23;1.10;;;7.80;99.90;;;;;;5065144;28;20029;-78
2020/12/24 06:18:46;;;;;;;3.10;1.60;;;7.80;99.90;;;;;;5058492;28;20032;-78
2020/12/24 06:21:19;;;;;;;3.22;1.65;;;7.80;99.90;;;;;;5061298;28;20028;-78
2020/12/24 06:23:48;;;;;;;2.83;1.10;;;7.80;99.90;;;;;;5058836;28;20396;-79
2020/12/24 06:26:35;;;;;;;3.25;1.05;;;7.80;99.90;;;;;;5058570;28;20046;-79
2020/12/24 06:29:02;;;;;;;2.30;0.90;;;7.70;99.90;;;;;;5056637;28;20415;-78
2020/12/24 06:31:29;;;;;;;2.50;0.90;;;7.70;99.90;;;;;;5056219;28;20100;-79
2020/12/24 06:33:54;;;;;;;2.53;0.90;;;7.70;99.90;;;;;;5057577;28;20027;-79
2020/12/24 06:36:37;;;;;;;3.25;1.08;;;7.60;99.90;;;;;;5058537;28;20117;-79
2020/12/24 06:39:04;;;;;;;2.05;0.95;;;7.60;99.90;;;;;;5039070;28;20033;-78
2020/12/24 06:41:37;;;;;;;1.45;1.00;;;7.60;99.90;;;;;;5054493;28;20404;-79
2020/12/24 06:44:04;;;;;;;1.25;0.90;;;7.60;99.90;;;;;;5039606;28;20032;-79
2020/12/24 06:46:50;;;;;;;0.80;0.80;;;7.60;99.90;;;;;;5039585;28;20038;-79
2020/12/24 06:49:31;;;;;;;0.90;0.88;;;7.60;99.90;;;;;;5053341;28;20028;-79
2020/12/24 06:51:57;;;;;;;4.75;1.10;;;7.60;99.90;;;;;;5038862;28;20389;-79
2020/12/24 06:54:28;;;;;;;1.33;1.00;;;7.50;99.90;;;;;;5054627;28;20022;-79
2020/12/24 06:57:21;;;;;;;2.10;0.85;;;7.50;99.90;;;;;;5038661;28;20025;-79
2020/12/24 06:59:48;;;;;;;1.63;1.10;;;7.50;99.90;;;;;;5074776;28;20120;-79
2020/12/24 07:02:23;;;;;;;2.60;0.90;;;7.40;99.90;;;;;;5058455;28;20029;-79
2020/12/24 07:04:49;;;;;;;1.40;0.80;;;7.50;99.90;;;;;;5057690;28;20480;-81
2020/12/24 07:07:41;;;;;;;1.73;0.70;;;7.50;99.90;;;;;;5056627;28;20123;-80
2020/12/24 07:10:07;;;;;;;1.25;0.80;;;7.50;99.90;;;;;;5072180;28;20024;-79
2020/12/24 07:12:34;;;;;;;0.68;0.68;;;7.50;99.90;;;;;;5055955;28;20025;-78
2020/12/24 07:15:18;;;;;;;1.05;0.85;;;7.50;99.90;;;;;;5057317;28;20055;-80
2020/12/24 07:17:44;;;;;;;1.00;0.70;;;7.60;99.90;;;;;;5057936;28;20483;-79
2020/12/24 07:20:10;;;;;;;1.50;0.65;;;7.50;99.90;;;;;;5057741;28;20179;-79
2020/12/24 07:22:37;;;;;;;1.13;0.70;;;7.50;99.90;;;;;;5057627;28;20055;-80
2020/12/24 07:25:04;;;;;;;2.65;0.70;;;7.50;99.90;;;;;;5058026;28;20027;-80
2020/12/24 07:27:30;;;;;;;1.17;0.73;;;7.40;99.90;;;;;;5055943;28;20180;-79
2020/12/24 07:29:56;;;;;;;1.05;0.80;;;7.40;99.90;;;;;;5053572;28;20030;-80
2020/12/24 07:32:22;;;;;;;0.73;0.65;;;7.40;99.90;;;;;;5038095;28;20021;-80
2020/12/24 07:34:48;;;;;;;0.60;0.60;;;7.40;99.90;;;;;;5036763;28;20038;-79
2020/12/24 07:37:13;;;;;;;1.33;0.82;;;7.40;99.90;;;;;;5037564;28;20037;-80
2020/12/24 07:39:50;;;;;;;3.25;0.90;;;7.40;99.90;;;;;;5052706;28;20037;-80
2020/12/24 07:42:22;;;;;;;1.83;0.75;;;7.40;99.90;;;;;;5053662;28;20112;-79
2020/12/24 07:44:47;;;;;;;3.05;0.60;;;7.40;99.90;;;;;;5041585;28;20119;-79
2020/12/24 07:47:14;;;;;;;1.10;0.60;;;7.40;99.90;;;;;;5057256;28;20033;-79
2020/12/24 07:49:54;;;;;;;0.70;0.60;;;7.40;99.90;;;;;;5041204;28;20480;-79
2020/12/24 07:52:19;;;;;;;0.60;0.60;;;7.40;99.90;;;;;;5041481;28;20026;-78
2020/12/24 07:54:45;;;;;;;1.98;0.70;;;7.40;99.90;;;;;;5040890;28;20025;-77
2020/12/24 07:57:22;;;;;;;2.13;0.65;;;7.30;99.90;;;;;;5055112;28;20029;-77
2020/12/24 07:59:48;;;;;;;0.77;0.70;;;7.40;99.90;;;;;;5064262;28;20025;-77
2020/12/24 08:02:14;;;;;;;2.80;0.50;;;7.40;99.90;;;;;;5077836;28;20037;-78
2020/12/24 08:04:39;;;;;;;2.70;0.75;;;7.30;99.90;;;;;;5069116;28;20100;-77
2020/12/24 08:07:05;;;;;;;1.83;0.80;;;7.30;99.90;;;;;;5061072;28;20036;-78
2020/12/24 08:09:31;;;;;;;2.47;1.00;;;7.20;99.90;;;;;;5068509;28;20496;-77
2020/12/24 08:11:58;;;;;;;2.42;1.00;;;7.20;99.90;;;;;;5054460;28;20047;-78
2020/12/24 08:14:26;;;;;;;3.05;1.00;;;7.20;99.90;;;;;;5058008;28;20384;-78
2020/12/24 08:16:53;;;;;;;1.80;0.70;;;7.20;99.90;;;;;;5073111;28;20082;-78
2020/12/24 08:19:28;;;;;;;1.17;0.60;;;7.20;99.90;;;;;;5057652;28;20033;-77
2020/12/24 08:22:01;;;;;;;1.08;0.60;;;7.20;99.90;;;;;;5057095;28;20559;-77
2020/12/24 08:24:27;;;;;;;1.42;0.73;;;7.20;99.90;;;;;;5056430;28;20039;-78
2020/12/24 08:26:56;;;;;;;1.65;0.60;;;7.20;99.90;;;;;;5071464;28;20036;-77
2020/12/24 08:29:21;;;;;;;1.83;0.80;;;7.20;99.90;;;;;;5056784;28;20025;-77
2020/12/24 08:31:47;;;;;;;3.33;0.90;;;7.20;99.90;;;;;;5056836;28;20047;-78
2020/12/24 08:34:13;;;;;;;1.77;0.90;;;7.10;99.90;;;;;;5056768;28;20032;-77
2020/12/24 08:36:46;;;;;;;1.65;1.10;;;7.10;99.90;;;;;;5056684;28;20032;-77
2020/12/24 08:39:14;;;;;;;3.03;1.02;;;7.10;99.90;;;;;;5037632;28;20092;-77
2020/12/24 08:41:41;;;;;;;0.60;0.60;;;7.10;99.90;;;;;;5064807;28;20029;-77
2020/12/24 08:44:08;;;;;;;1.08;0.70;;;7.10;99.90;;;;;;5056734;28;20033;-77
2020/12/24 08:46:33;;;;;;;6.60;1.00;;;7.10;99.90;;;;;;5056551;28;20029;-77
2020/12/24 08:49:24;;;;;;;2.15;0.98;;;7.10;99.90;;;;;;5055835;28;20369;-78
2020/12/24 08:52:07;;;;;;;2.63;1.00;;;7.00;99.90;;;;;;5054899;28;20380;-78
2020/12/24 08:54:32;;;;;;;2.42;0.88;;;7.10;99.90;;;;;;5071095;28;20075;-79
2020/12/24 08:57:00;;;;;;;1.90;0.88;;;7.10;99.90;;;;;;5049099;28;20033;-77
2020/12/24 08:59:25;;;;;;;1.60;0.95;;;7.10;99.90;;;;;;5054197;28;20029;-77
2020/12/24 09:01:51;;;;;;;1.15;1.00;;;7.10;99.90;;;;;;5055100;28;20025;-77
2020/12/24 09:04:17;;;;;;;1.52;0.88;;;7.00;99.90;;;;;;5070874;28;20029;-77
2020/12/24 09:06:44;;;;;;;3.30;1.23;;;7.00;99.90;;;;;;5069277;28;20029;-77
2020/12/24 09:09:21;;;;;;;1.45;1.20;;;7.00;99.90;;;;;;5069694;28;20503;-78
2020/12/24 09:11:48;;;;;;;2.80;1.00;;;7.00;99.90;;;;;;5054282;28;20033;-77
2020/12/24 09:14:17;;;;;;;2.63;1.10;;;7.00;99.90;;;;;;5054966;28;20048;-77
2020/12/24 09:16:56;;;;;;;1.95;0.80;;;7.00;99.90;;;;;;5055124;28;20079;-77
2020/12/24 09:19:22;;;;;;;2.65;1.80;;;7.00;99.90;;;;;;5069919;28;20040;-77
2020/12/24 09:21:58;;;;;;;1.73;1.00;;;7.00;99.90;;;;;;5070438;28;20029;-77
2020/12/24 09:24:25;;;;;;;2.40;0.95;;;7.00;99.90;;;;;;5069450;28;20170;-77
2020/12/24 09:26:54;;;;;;;1.90;0.95;;;7.00;99.90;;;;;;5053480;28;20029;-77
2020/12/24 09:29:21;;;;;;;1.33;1.08;;;7.00;99.90;;;;;;5069477;28;20102;-77
2020/12/24 09:31:54;;;;;;;2.17;0.90;;;7.10;99.90;;;;;;5054909;28;20036;-77
2020/12/24 09:34:19;;;;;;;3.03;1.40;;;7.10;99.90;;;;;;5053644;28;20028;-77
2020/12/24 09:36:49;;;;;;;3.25;1.10;;;7.20;99.90;;;;;;5054808;28;20025;-76
2020/12/24 09:39:15;;;;;;;4.07;1.52;;;7.30;99.90;;;;;;5072078;23;20053;-75
2020/12/24 09:41:45;;;;;;;3.45;1.40;;;7.40;99.90;;;;;;5045756;28;20052;-76
2020/12/24 09:44:11;;;;;;;2.67;1.45;;;7.40;99.90;;;;;;5033835;28;20530;-76
2020/12/24 09:46:37;;;;;;;3.78;1.30;;;7.50;99.90;;;;;;5030097;28;20033;-76
2020/12/24 09:49:03;;;;;;;2.17;1.15;;;7.50;99.90;;;;;;5034552;28;20504;-75
2020/12/24 09:51:35;;;;;;;3.75;1.30;;;7.50;99.90;;;;;;5024055;28;20038;-76
2020/12/24 09:54:01;;;;;;;2.83;1.13;;;7.50;99.90;;;;;;5014351;28;20358;-74
2020/12/24 09:56:27;;;;;;;3.08;1.05;;;7.40;99.90;;;;;;5024321;28;20075;-76
2020/12/24 09:58:52;;;;;;;1.52;1.05;;;7.40;99.90;;;;;;5025482;28;20033;-74
2020/12/24 10:01:18;;;;;;;2.58;1.05;;;7.40;99.90;;;;;;5014404;28;20045;-75
2020/12/24 10:03:43;;;;;;;1.70;0.80;;;7.40;99.90;;;;;;5045284;28;20034;-75
2020/12/24 10:06:09;;;;;;;2.00;0.90;;;7.30;99.90;;;;;;5012510;28;20026;-75
2020/12/24 10:08:35;;;;;;;2.67;1.15;;;7.30;99.90;;;;;;5014180;28;20032;-73
2020/12/24 10:11:00;;;;;;;6.35;0.98;;;7.20;99.90;;;;;;5012786;28;20169;-74
2020/12/24 10:13:26;;;;;;;2.30;1.40;;;7.20;99.90;;;;;;5015696;28;20084;-75
2020/12/24 10:15:51;;;;;;;1.85;1.02;;;7.20;99.90;;;;;;5029337;28;20421;-74
2020/12/24 10:18:17;;;;;;;5.82;1.25;;;7.20;99.90;;;;;;5015095;28;20025;-75
2020/12/24 10:20:42;;;;;;;3.20;1.10;;;7.30;99.90;;;;;;5014018;28;20485;-75
2020/12/24 10:23:10;;;;;;;1.02;0.90;;;7.30;99.90;;;;;;5026395;28;20400;-76
2020/12/24 10:25:39;;;;;;;1.98;1.10;;;7.30;99.90;;;;;;5031676;28;20141;-75
2020/12/24 10:28:05;;;;;;;6.85;1.88;;;7.30;99.90;;;;;;5014057;28;20022;-75
2020/12/24 10:30:31;;;;;;;24.42;11.38;;;7.20;99.90;;;;;;5021998;28;20029;-76
2020/12/24 10:32:57;;;;;;;22.80;13.60;;;7.30;99.90;;;;;;5047560;28;20026;-76
2020/12/24 10:35:22;;;;;;;6.93;5.07;;;7.30;99.90;;;;;;5034014;28;20557;-75
2020/12/24 10:37:48;;;;;;;8.45;5.40;;;7.30;99.90;;;;;;5045839;28;20029;-76
2020/12/24 10:40:14;;;;;;;3.35;2.20;;;7.40;99.90;;;;;;5013781;28;20041;-75
2020/12/24 10:42:40;;;;;;;3.88;1.55;;;7.30;99.90;;;;;;5012620;28;20381;-76
2020/12/24 10:45:09;;;;;;;4.05;1.50;;;7.30;99.90;;;;;;5014058;28;20022;-75
2020/12/24 10:47:34;;;;;;;3.25;1.80;;;7.30;99.90;;;;;;5014658;28;20053;-75
2020/12/24 10:50:00;;;;;;;5.80;3.25;;;7.40;99.90;;;;;;5017907;28;20049;-76
2020/12/24 10:52:25;;;;;;;5.07;2.13;;;7.40;99.90;;;;;;5018233;28;20026;-76
2020/12/24 10:54:51;;;;;;;3.60;1.40;;;7.40;99.90;;;;;;5012938;28;20480;-76
2020/12/24 10:57:16;;;;;;;2.20;1.00;;;7.30;99.90;;;;;;5013433;28;20022;-76
2020/12/24 10:59:42;;;;;;;3.33;1.10;;;7.30;99.90;;;;;;5013030;28;20120;-75
2020/12/24 11:02:08;;;;;;;1.55;1.08;;;7.40;99.90;;;;;;5031739;28;20076;-75
2020/12/24 11:04:34;;;;;;;2.85;1.27;;;7.40;99.90;;;;;;5048250;28;20026;-76
2020/12/24 11:07:00;;;;;;;2.88;1.63;;;7.50;99.90;;;;;;5023337;28;20072;-75
2020/12/24 11:09:25;;;;;;;3.88;1.20;;;7.50;99.90;;;;;;5018692;28;20041;-75
2020/12/24 11:11:51;;;;;;;1.85;1.05;;;7.60;99.90;;;;;;5028988;28;20022;-75
2020/12/24 11:14:16;;;;;;;2.42;1.50;;;7.60;99.90;;;;;;5024892;28;20030;-76
2020/12/24 11:16:42;;;;;;;1.98;1.60;;;7.70;99.90;;;;;;5026579;28;20025;-76
2020/12/24 11:19:17;;;;;;;2.90;1.00;;;7.80;99.90;;;;;;5012020;28;20034;-75
2020/12/24 11:21:42;;;;;;;2.95;1.00;;;7.80;99.90;;;;;;5017554;28;20038;-76
2020/12/24 11:24:08;;;;;;;4.63;1.52;;;7.80;99.90;;;;;;5035140;28;20037;-75
2020/12/24 11:26:35;;;;;;;3.35;1.17;;;7.70;99.90;;;;;;5015331;28;20492;-75
2020/12/24 11:29:00;;;;;;;3.28;1.40;;;7.80;99.90;;;;;;5029844;28;20068;-74
2020/12/24 11:31:29;;;;;;;1.42;1.00;;;7.80;99.90;;;;;;5023110;28;20061;-75
2020/12/24 11:33:55;;;;;;;2.28;1.10;;;7.80;99.90;;;;;;5011555;28;20033;-74
2020/12/24 11:36:21;;;;;;;2.80;1.20;;;8.00;99.90;;;;;;5014714;28;20424;-75
2020/12/24 11:38:47;;;;;;;2.85;1.55;;;8.10;99.90;;;;;;5003776;28;20026;-75
2020/12/24 11:41:15;;;;;;;2.22;1.35;;;8.20;99.90;;;;;;5010059;28;20034;-76
2020/12/24 11:43:41;;;;;;;3.22;1.40;;;8.30;99.90;;;;;;5006053;28;20030;-76
2020/12/24 11:46:11;;;;;;;2.58;1.52;;;8.30;99.90;;;;;;5030890;28;20077;-75
2020/12/24 11:48:38;;;;;;;2.72;1.30;;;8.30;99.90;;;;;;5018119;28;20034;-75
2020/12/24 11:51:11;;;;;;;2.83;1.85;;;8.20;99.90;;;;;;5016603;28;20030;-75
2020/12/24 11:53:37;;;;;;;3.72;2.67;;;8.20;99.90;;;;;;5016965;28;20105;-75
2020/12/24 11:56:03;;;;;;;5.70;5.05;;;8.40;99.90;;;;;;5019009;28;20416;-74
2020/12/24 11:58:29;;;;;;;2.80;1.63;;;8.40;99.90;;;;;;5032320;28;20034;-74
2020/12/24 12:00:54;;;;;;;5.45;3.20;;;8.50;99.90;;;;;;5017765;28;20032;-75
2020/12/24 12:03:20;;;;;;;2.50;1.40;;;8.80;99.90;;;;;;5013330;28;20049;-75
2020/12/24 12:05:45;;;;;;;6.85;3.80;;;9.10;99.90;;;;;;5013439;28;20029;-75
2020/12/24 12:08:11;;;;;;;4.50;2.15;;;10.20;99.90;;;;;;5014582;28;20034;-75
2020/12/24 12:10:36;;;;;;;5.60;3.45;;;11.60;99.90;;;;;;5013896;28;20030;-75
2020/12/24 12:13:02;;;;;;;3.45;2.20;;;11.70;99.90;;;;;;5009959;28;20026;-75
2020/12/24 12:15:28;;;;;;;3.63;1.48;;;11.50;99.90;;;;;;4993486;28;20018;-75
2020/12/24 12:17:54;;;;;;;1.83;1.15;;;11.10;99.90;;;;;;5008228;28;20022;-75
2020/12/24 12:20:20;;;;;;;2.15;1.65;;;11.30;99.90;;;;;;5000075;28;20022;-75
2020/12/24 12:22:46;;;;;;;3.22;1.35;;;12.20;99.90;;;;;;5012557;28;20020;-74
2020/12/24 12:25:12;;;;;;;2.38;1.27;;;12.70;99.90;;;;;;5013935;28;20026;-75
2020/12/24 12:27:38;;;;;;;2.53;1.40;;;12.60;99.90;;;;;;5013030;28;20041;-74
2020/12/24 12:30:04;;;;;;;3.42;1.20;;;12.40;99.90;;;;;;5015949;28;20377;-75
2020/12/24 12:32:30;;;;;;;3.60;2.00;;;13.50;99.90;;;;;;5015161;28;20060;-75
2020/12/24 12:34:55;;;;;;;2.33;1.27;;;14.10;99.90;;;;;;5016213;28;20054;-74
2020/12/24 12:37:21;;;;;;;1.77;1.30;;;13.80;99.90;;;;;;5016286;28;20481;-75
2020/12/24 12:39:46;;;;;;;1.58;1.13;;;12.90;99.90;;;;;;5016185;28;20046;-75
2020/12/24 12:42:12;;;;;;;4.10;1.42;;;12.10;99.90;;;;;;5031480;28;20030;-74
2020/12/24 12:44:37;;;;;;;7.10;3.08;;;11.40;99.90;;;;;;5016091;28;20029;-75
2020/12/24 12:47:02;;;;;;;4.50;2.85;;;10.90;99.90;;;;;;5016184;28;20030;-74
2020/12/24 12:49:28;;;;;;;6.82;3.47;;;10.50;99.90;;;;;;5015589;28;20064;-74
2020/12/24 12:51:54;;;;;;;5.03;3.33;;;10.10;99.90;;;;;;5000480;28;20030;-76
2020/12/24 12:54:19;;;;;;;6.25;3.28;;;9.90;99.90;;;;;;4996411;28;20441;-74
2020/12/24 12:56:45;;;;;;;3.40;1.98;;;9.80;99.90;;;;;;4997895;28;20545;-74